Terminal Aerodrome Forecast
Issued by NWS Omaha/Valley, NE

Home | Current Version | Previous Version | Text Only | Print | Product List | Glossary On
Versions: 1 2 3 4 5 6 7 8 9 10 11 12 13 14 15 16 17 18 19
000
FTUS43 KOAX 271411 AAA
TAFLNK
TAF AMD
KLNK 271411Z 2714/2812 34011KT P6SM SCT035
     FM272000 VRB05KT P6SM BKN100
     FM280000 14005KT P6SM VCSH BKN070
     FM280400 07007KT P6SM SCT015 OVC035
     FM280900 06009KT 6SM -SHRA BKN015 OVC025=

USA.gov is the U.S. government's official web portal to all federal, state and local government web resources and services.